sensor_id;sensor_type;location;lat;lon;timestamp;temperature;humidity
14006;DHT22;7078;51.542;7.314;2023-12-14T00:01:44;7.50;99.90
14006;DHT22;7078;51.542;7.314;2023-12-14T00:04:11;7.50;99.90
14006;DHT22;7078;51.542;7.314;2023-12-14T00:06:37;7.50;99.90
14006;DHT22;7078;51.542;7.314;2023-12-14T00:09:02;7.50;99.90
14006;DHT22;7078;51.542;7.314;2023-12-14T00:11:29;7.50;99.90
14006;DHT22;7078;51.542;7.314;2023-12-14T00:13:54;7.50;99.90
14006;DHT22;7078;51.542;7.314;2023-12-14T00:16:20;7.40;99.90
14006;DHT22;7078;51.542;7.314;2023-12-14T00:18:45;7.40;99.90
14006;DHT22;7078;51.542;7.314;2023-12-14T00:21:11;7.40;99.90
14006;DHT22;7078;51.542;7.314;2023-12-14T00:23:36;7.30;99.90
14006;DHT22;7078;51.542;7.314;2023-12-14T00:26:02;7.30;99.90
14006;DHT22;7078;51.542;7.314;2023-12-14T00:28:28;7.20;99.90
14006;DHT22;7078;51.542;7.314;2023-12-14T00:30:53;7.20;99.90
14006;DHT22;7078;51.542;7.314;2023-12-14T00:33:19;7.20;99.90
14006;DHT22;7078;51.542;7.314;2023-12-14T00:35:45;7.20;99.90
14006;DHT22;7078;51.542;7.314;2023-12-14T00:38:10;7.20;99.90
14006;DHT22;7078;51.542;7.314;2023-12-14T00:40:36;7.20;99.90
14006;DHT22;7078;51.542;7.314;2023-12-14T00:43:01;7.20;99.90
14006;DHT22;7078;51.542;7.314;2023-12-14T00:45:27;7.30;99.90
14006;DHT22;7078;51.542;7.314;2023-12-14T00:47:52;7.20;99.90
14006;DHT22;7078;51.542;7.314;2023-12-14T00:50:18;7.30;99.90
14006;DHT22;7078;51.542;7.314;2023-12-14T00:52:43;7.20;99.90
14006;DHT22;7078;51.542;7.314;2023-12-14T00:55:09;7.20;99.90
14006;DHT22;7078;51.542;7.314;2023-12-14T00:57:34;7.20;99.90
14006;DHT22;7078;51.542;7.314;2023-12-14T01:00:00;7.20;99.90
14006;DHT22;7078;51.542;7.314;2023-12-14T01:02:25;7.10;99.90
14006;DHT22;7078;51.542;7.314;2023-12-14T01:04:50;7.10;99.90
14006;DHT22;7078;51.542;7.314;2023-12-14T01:07:16;7.00;99.90
14006;DHT22;7078;51.542;7.314;2023-12-14T01:09:41;7.00;99.90
14006;DHT22;7078;51.542;7.314;2023-12-14T01:12:07;7.00;99.90
14006;DHT22;7078;51.542;7.314;2023-12-14T01:14:32;6.90;99.90
14006;DHT22;7078;51.542;7.314;2023-12-14T01:16:59;6.90;99.90
14006;DHT22;7078;51.542;7.314;2023-12-14T01:19:24;6.90;99.90
14006;DHT22;7078;51.542;7.314;2023-12-14T01:21:51;6.90;99.90
14006;DHT22;7078;51.542;7.314;2023-12-14T01:24:16;6.90;99.90
14006;DHT22;7078;51.542;7.314;2023-12-14T01:26:41;6.90;99.90
14006;DHT22;7078;51.542;7.314;2023-12-14T01:29:07;6.90;99.90
14006;DHT22;7078;51.542;7.314;2023-12-14T01:31:33;6.80;99.90
14006;DHT22;7078;51.542;7.314;2023-12-14T01:33:58;6.80;99.90
14006;DHT22;7078;51.542;7.314;2023-12-14T01:36:25;6.80;99.90
14006;DHT22;7078;51.542;7.314;2023-12-14T01:38:51;6.80;99.90
14006;DHT22;7078;51.542;7.314;2023-12-14T01:41:17;6.80;99.90
14006;DHT22;7078;51.542;7.314;2023-12-14T01:43:42;6.70;99.90
14006;DHT22;7078;51.542;7.314;2023-12-14T01:46:08;6.70;99.90
14006;DHT22;7078;51.542;7.314;2023-12-14T01:48:34;6.70;99.90
14006;DHT22;7078;51.542;7.314;2023-12-14T01:50:59;6.60;99.90
14006;DHT22;7078;51.542;7.314;2023-12-14T01:53:25;6.60;99.90
14006;DHT22;7078;51.542;7.314;2023-12-14T01:55:51;6.60;99.90
14006;DHT22;7078;51.542;7.314;2023-12-14T01:58:16;6.60;99.90
14006;DHT22;7078;51.542;7.314;2023-12-14T02:00:52;6.50;99.90
14006;DHT22;7078;51.542;7.314;2023-12-14T02:03:20;6.50;99.90
14006;DHT22;7078;51.542;7.314;2023-12-14T02:05:46;6.50;99.90
14006;DHT22;7078;51.542;7.314;2023-12-14T02:08:11;6.50;99.90
14006;DHT22;7078;51.542;7.314;2023-12-14T02:10:37;6.40;99.90
14006;DHT22;7078;51.542;7.314;2023-12-14T02:13:02;6.50;99.90
14006;DHT22;7078;51.542;7.314;2023-12-14T02:15:28;6.50;99.90
14006;DHT22;7078;51.542;7.314;2023-12-14T02:17:54;6.50;99.90
14006;DHT22;7078;51.542;7.314;2023-12-14T02:20:19;6.60;99.90
14006;DHT22;7078;51.542;7.314;2023-12-14T02:22:49;6.50;99.90
14006;DHT22;7078;51.542;7.314;2023-12-14T02:25:16;6.50;99.90
14006;DHT22;7078;51.542;7.314;2023-12-14T02:27:41;6.50;99.90
14006;DHT22;7078;51.542;7.314;2023-12-14T02:30:07;6.40;99.90
14006;DHT22;7078;51.542;7.314;2023-12-14T02:32:33;6.40;99.90
14006;DHT22;7078;51.542;7.314;2023-12-14T02:34:58;6.30;99.90
14006;DHT22;7078;51.542;7.314;2023-12-14T02:37:24;6.30;99.90
14006;DHT22;7078;51.542;7.314;2023-12-14T02:39:49;6.30;99.90
14006;DHT22;7078;51.542;7.314;2023-12-14T02:42:15;6.30;99.90
14006;DHT22;7078;51.542;7.314;2023-12-14T02:44:40;6.30;99.90
14006;DHT22;7078;51.542;7.314;2023-12-14T02:47:06;6.30;99.90
14006;DHT22;7078;51.542;7.314;2023-12-14T02:49:32;6.30;99.90
14006;DHT22;7078;51.542;7.314;2023-12-14T02:51:58;6.30;99.90
14006;DHT22;7078;51.542;7.314;2023-12-14T02:54:24;6.30;99.90
14006;DHT22;7078;51.542;7.314;2023-12-14T02:56:49;6.30;99.90
14006;DHT22;7078;51.542;7.314;2023-12-14T02:59:15;6.30;99.90
14006;DHT22;7078;51.542;7.314;2023-12-14T03:01:40;6.30;99.90
14006;DHT22;7078;51.542;7.314;2023-12-14T03:04:07;6.30;99.90
14006;DHT22;7078;51.542;7.314;2023-12-14T03:06:33;6.20;99.90
14006;DHT22;7078;51.542;7.314;2023-12-14T03:08:58;6.20;99.90
14006;DHT22;7078;51.542;7.314;2023-12-14T03:11:24;6.20;99.90
14006;DHT22;7078;51.542;7.314;2023-12-14T03:13:50;6.20;99.90
14006;DHT22;7078;51.542;7.314;2023-12-14T03:16:15;6.20;99.90
14006;DHT22;7078;51.542;7.314;2023-12-14T03:18:42;6.30;99.90
14006;DHT22;7078;51.542;7.314;2023-12-14T03:21:09;6.20;99.90
14006;DHT22;7078;51.542;7.314;2023-12-14T03:23:34;6.20;99.90
14006;DHT22;7078;51.542;7.314;2023-12-14T03:26:00;6.20;99.90
14006;DHT22;7078;51.542;7.314;2023-12-14T03:28:26;6.20;99.90
14006;DHT22;7078;51.542;7.314;2023-12-14T03:30:52;6.20;99.90
14006;DHT22;7078;51.542;7.314;2023-12-14T03:33:18;6.10;99.90
14006;DHT22;7078;51.542;7.314;2023-12-14T03:35:43;6.10;99.90
14006;DHT22;7078;51.542;7.314;2023-12-14T03:38:09;6.10;99.90
14006;DHT22;7078;51.542;7.314;2023-12-14T03:40:35;6.10;99.90
14006;DHT22;7078;51.542;7.314;2023-12-14T03:43:01;6.10;99.90
14006;DHT22;7078;51.542;7.314;2023-12-14T03:45:28;6.20;99.90
14006;DHT22;7078;51.542;7.314;2023-12-14T03:47:54;6.20;99.90
14006;DHT22;7078;51.542;7.314;2023-12-14T03:50:19;6.20;99.90
14006;DHT22;7078;51.542;7.314;2023-12-14T03:52:45;6.20;99.90
14006;DHT22;7078;51.542;7.314;2023-12-14T03:55:10;6.20;99.90
14006;DHT22;7078;51.542;7.314;2023-12-14T03:57:36;6.20;99.90
14006;DHT22;7078;51.542;7.314;2023-12-14T04:00:01;6.20;99.90
14006;DHT22;7078;51.542;7.314;2023-12-14T04:02:27;6.30;99.90
14006;DHT22;7078;51.542;7.314;2023-12-14T04:04:53;6.20;99.90
14006;DHT22;7078;51.542;7.314;2023-12-14T04:07:18;6.20;99.90
14006;DHT22;7078;51.542;7.314;2023-12-14T04:09:45;6.20;99.90
14006;DHT22;7078;51.542;7.314;2023-12-14T04:12:11;6.20;99.90
14006;DHT22;7078;51.542;7.314;2023-12-14T04:14:36;6.10;99.90
14006;DHT22;7078;51.542;7.314;2023-12-14T04:17:02;6.20;99.90
14006;DHT22;7078;51.542;7.314;2023-12-14T04:19:27;6.10;99.90
14006;DHT22;7078;51.542;7.314;2023-12-14T04:21:53;6.10;99.90
14006;DHT22;7078;51.542;7.314;2023-12-14T04:24:18;6.10;99.90
14006;DHT22;7078;51.542;7.314;2023-12-14T04:26:44;6.00;99.90
14006;DHT22;7078;51.542;7.314;2023-12-14T04:29:10;6.00;99.90
14006;DHT22;7078;51.542;7.314;2023-12-14T04:31:35;6.00;99.90
14006;DHT22;7078;51.542;7.314;2023-12-14T04:34:01;6.00;99.90
14006;DHT22;7078;51.542;7.314;2023-12-14T04:36:26;6.00;99.90
14006;DHT22;7078;51.542;7.314;2023-12-14T04:38:52;6.00;99.90
14006;DHT22;7078;51.542;7.314;2023-12-14T04:41:17;6.00;99.90
14006;DHT22;7078;51.542;7.314;2023-12-14T04:43:43;6.00;99.90
14006;DHT22;7078;51.542;7.314;2023-12-14T04:46:08;6.00;99.90
14006;DHT22;7078;51.542;7.314;2023-12-14T04:48:34;6.00;99.90
14006;DHT22;7078;51.542;7.314;2023-12-14T04:50:59;6.00;99.90
14006;DHT22;7078;51.542;7.314;2023-12-14T04:53:25;5.90;99.90
14006;DHT22;7078;51.542;7.314;2023-12-14T04:55:50;5.90;99.90
14006;DHT22;7078;51.542;7.314;2023-12-14T04:58:16;6.00;99.90
14006;DHT22;7078;51.542;7.314;2023-12-14T05:00:41;5.90;99.90
14006;DHT22;7078;51.542;7.314;2023-12-14T05:03:07;5.90;99.90
14006;DHT22;7078;51.542;7.314;2023-12-14T05:05:33;5.90;99.90
14006;DHT22;7078;51.542;7.314;2023-12-14T05:07:58;5.90;99.90
14006;DHT22;7078;51.542;7.314;2023-12-14T05:10:24;5.80;99.90
14006;DHT22;7078;51.542;7.314;2023-12-14T05:12:49;5.80;99.90
14006;DHT22;7078;51.542;7.314;2023-12-14T05:15:15;5.80;99.90
14006;DHT22;7078;51.542;7.314;2023-12-14T05:17:40;5.70;99.90
14006;DHT22;7078;51.542;7.314;2023-12-14T05:20:09;5.70;99.90
14006;DHT22;7078;51.542;7.314;2023-12-14T05:22:35;5.70;99.90
14006;DHT22;7078;51.542;7.314;2023-12-14T05:25:01;5.70;99.90
14006;DHT22;7078;51.542;7.314;2023-12-14T05:27:26;5.70;99.90
14006;DHT22;7078;51.542;7.314;2023-12-14T05:29:52;5.70;99.90
14006;DHT22;7078;51.542;7.314;2023-12-14T05:32:17;5.80;99.90
14006;DHT22;7078;51.542;7.314;2023-12-14T05:34:43;5.80;99.90
14006;DHT22;7078;51.542;7.314;2023-12-14T05:37:08;5.70;99.90
14006;DHT22;7078;51.542;7.314;2023-12-14T05:39:34;5.70;99.90
14006;DHT22;7078;51.542;7.314;2023-12-14T05:41:59;5.80;99.90
14006;DHT22;7078;51.542;7.314;2023-12-14T05:44:26;5.70;99.90
14006;DHT22;7078;51.542;7.314;2023-12-14T05:46:51;5.70;99.90
14006;DHT22;7078;51.542;7.314;2023-12-14T05:49:16;5.70;99.90
14006;DHT22;7078;51.542;7.314;2023-12-14T05:51:42;5.60;99.90
14006;DHT22;7078;51.542;7.314;2023-12-14T05:54:07;5.80;99.90
14006;DHT22;7078;51.542;7.314;2023-12-14T05:56:33;5.60;99.90
14006;DHT22;7078;51.542;7.314;2023-12-14T05:58:58;5.60;99.90
14006;DHT22;7078;51.542;7.314;2023-12-14T06:01:24;5.70;99.90
14006;DHT22;7078;51.542;7.314;2023-12-14T06:03:50;5.60;99.90
14006;DHT22;7078;51.542;7.314;2023-12-14T06:06:15;5.80;99.90
14006;DHT22;7078;51.542;7.314;2023-12-14T06:08:41;5.70;99.90
14006;DHT22;7078;51.542;7.314;2023-12-14T06:11:08;5.60;99.90
14006;DHT22;7078;51.542;7.314;2023-12-14T06:13:34;5.60;99.90
14006;DHT22;7078;51.542;7.314;2023-12-14T06:15:59;5.70;99.90
14006;DHT22;7078;51.542;7.314;2023-12-14T06:18:26;5.70;99.90
14006;DHT22;7078;51.542;7.314;2023-12-14T06:20:52;5.70;99.90
14006;DHT22;7078;51.542;7.314;2023-12-14T06:23:18;5.70;99.90
14006;DHT22;7078;51.542;7.314;2023-12-14T06:25:44;5.70;99.90
14006;DHT22;7078;51.542;7.314;2023-12-14T06:28:09;5.60;99.90
14006;DHT22;7078;51.542;7.314;2023-12-14T06:30:34;5.60;99.90
14006;DHT22;7078;51.542;7.314;2023-12-14T06:33:00;5.60;99.90
14006;DHT22;7078;51.542;7.314;2023-12-14T06:35:25;5.60;99.90
14006;DHT22;7078;51.542;7.314;2023-12-14T06:37:51;5.60;99.90
14006;DHT22;7078;51.542;7.314;2023-12-14T06:40:17;5.60;99.90
14006;DHT22;7078;51.542;7.314;2023-12-14T06:42:42;5.60;99.90
14006;DHT22;7078;51.542;7.314;2023-12-14T06:45:08;5.60;99.90
14006;DHT22;7078;51.542;7.314;2023-12-14T06:47:35;5.60;99.90
14006;DHT22;7078;51.542;7.314;2023-12-14T06:50:00;5.70;99.90
14006;DHT22;7078;51.542;7.314;2023-12-14T06:52:26;5.60;99.90
14006;DHT22;7078;51.542;7.314;2023-12-14T06:54:52;5.60;99.90
14006;DHT22;7078;51.542;7.314;2023-12-14T06:57:17;5.70;99.90
14006;DHT22;7078;51.542;7.314;2023-12-14T06:59:43;5.70;99.90
14006;DHT22;7078;51.542;7.314;2023-12-14T07:02:08;5.80;99.90
14006;DHT22;7078;51.542;7.314;2023-12-14T07:04:34;5.80;99.90
14006;DHT22;7078;51.542;7.314;2023-12-14T07:06:59;6.00;99.90
14006;DHT22;7078;51.542;7.314;2023-12-14T07:09:25;6.20;99.90
14006;DHT22;7078;51.542;7.314;2023-12-14T07:11:51;6.50;99.90
14006;DHT22;7078;51.542;7.314;2023-12-14T07:14:17;6.50;99.90
14006;DHT22;7078;51.542;7.314;2023-12-14T07:16:42;6.50;99.90
14006;DHT22;7078;51.542;7.314;2023-12-14T07:19:08;6.50;99.90
14006;DHT22;7078;51.542;7.314;2023-12-14T07:21:33;6.60;99.90
14006;DHT22;7078;51.542;7.314;2023-12-14T07:23:59;6.50;99.90
14006;DHT22;7078;51.542;7.314;2023-12-14T07:26:24;6.40;99.90
14006;DHT22;7078;51.542;7.314;2023-12-14T07:28:53;6.40;99.90
14006;DHT22;7078;51.542;7.314;2023-12-14T07:31:18;6.30;99.90
14006;DHT22;7078;51.542;7.314;2023-12-14T07:33:45;6.20;99.90
14006;DHT22;7078;51.542;7.314;2023-12-14T07:36:11;6.10;99.90
14006;DHT22;7078;51.542;7.314;2023-12-14T07:38:36;6.00;99.90
14006;DHT22;7078;51.542;7.314;2023-12-14T07:41:02;5.90;99.90
14006;DHT22;7078;51.542;7.314;2023-12-14T07:43:28;5.90;99.90
14006;DHT22;7078;51.542;7.314;2023-12-14T07:45:54;5.90;99.90
14006;DHT22;7078;51.542;7.314;2023-12-14T07:48:19;5.90;99.90
14006;DHT22;7078;51.542;7.314;2023-12-14T07:50:45;5.80;99.90
14006;DHT22;7078;51.542;7.314;2023-12-14T07:53:11;5.80;99.90
14006;DHT22;7078;51.542;7.314;2023-12-14T07:55:36;5.80;99.90
14006;DHT22;7078;51.542;7.314;2023-12-14T07:58:02;5.70;99.90
14006;DHT22;7078;51.542;7.314;2023-12-14T08:00:27;5.70;99.90
14006;DHT22;7078;51.542;7.314;2023-12-14T08:02:53;5.70;99.90
14006;DHT22;7078;51.542;7.314;2023-12-14T08:05:18;5.70;99.90
14006;DHT22;7078;51.542;7.314;2023-12-14T08:07:44;5.60;99.90
14006;DHT22;7078;51.542;7.314;2023-12-14T08:10:09;5.60;99.90
14006;DHT22;7078;51.542;7.314;2023-12-14T08:12:36;5.50;99.90
14006;DHT22;7078;51.542;7.314;2023-12-14T08:15:02;5.50;99.90
14006;DHT22;7078;51.542;7.314;2023-12-14T08:17:28;5.60;99.90
14006;DHT22;7078;51.542;7.314;2023-12-14T08:19:53;5.60;99.90
14006;DHT22;7078;51.542;7.314;2023-12-14T08:22:19;5.60;99.90
14006;DHT22;7078;51.542;7.314;2023-12-14T08:24:47;5.60;99.90
14006;DHT22;7078;51.542;7.314;2023-12-14T08:27:13;5.60;99.90
14006;DHT22;7078;51.542;7.314;2023-12-14T08:29:38;5.70;99.90
14006;DHT22;7078;51.542;7.314;2023-12-14T08:32:04;5.70;99.90
14006;DHT22;7078;51.542;7.314;2023-12-14T08:34:30;5.60;99.90
14006;DHT22;7078;51.542;7.314;2023-12-14T08:36:55;5.70;99.90
14006;DHT22;7078;51.542;7.314;2023-12-14T08:39:21;5.70;99.90
14006;DHT22;7078;51.542;7.314;2023-12-14T08:41:46;5.70;99.90
14006;DHT22;7078;51.542;7.314;2023-12-14T08:44:13;5.70;99.90
14006;DHT22;7078;51.542;7.314;2023-12-14T08:46:43;5.70;99.90
14006;DHT22;7078;51.542;7.314;2023-12-14T08:49:10;5.80;99.90
14006;DHT22;7078;51.542;7.314;2023-12-14T08:51:36;5.80;99.90
14006;DHT22;7078;51.542;7.314;2023-12-14T08:54:01;5.90;99.90
14006;DHT22;7078;51.542;7.314;2023-12-14T08:56:27;5.80;99.90
14006;DHT22;7078;51.542;7.314;2023-12-14T08:58:53;5.80;99.90
14006;DHT22;7078;51.542;7.314;2023-12-14T09:01:22;5.80;99.90
14006;DHT22;7078;51.542;7.314;2023-12-14T09:03:48;5.80;99.90
14006;DHT22;7078;51.542;7.314;2023-12-14T09:06:15;5.80;99.90
14006;DHT22;7078;51.542;7.314;2023-12-14T09:08:41;5.80;99.90
14006;DHT22;7078;51.542;7.314;2023-12-14T09:11:07;5.80;99.90
14006;DHT22;7078;51.542;7.314;2023-12-14T09:13:32;5.80;99.90
14006;DHT22;7078;51.542;7.314;2023-12-14T09:15:58;5.80;99.90
14006;DHT22;7078;51.542;7.314;2023-12-14T09:18:23;5.80;99.90
14006;DHT22;7078;51.542;7.314;2023-12-14T09:20:49;5.80;99.90
14006;DHT22;7078;51.542;7.314;2023-12-14T09:23:16;5.80;99.90
14006;DHT22;7078;51.542;7.314;2023-12-14T09:25:42;5.90;99.90
14006;DHT22;7078;51.542;7.314;2023-12-14T09:28:07;5.90;99.90
14006;DHT22;7078;51.542;7.314;2023-12-14T09:30:33;5.90;99.90
14006;DHT22;7078;51.542;7.314;2023-12-14T09:32:58;5.80;99.90
14006;DHT22;7078;51.542;7.314;2023-12-14T09:35:24;5.80;99.90
14006;DHT22;7078;51.542;7.314;2023-12-14T09:37:49;5.80;99.90
14006;DHT22;7078;51.542;7.314;2023-12-14T09:40:15;5.80;99.90
14006;DHT22;7078;51.542;7.314;2023-12-14T09:42:42;5.80;99.90
14006;DHT22;7078;51.542;7.314;2023-12-14T09:45:08;5.80;99.90
14006;DHT22;7078;51.542;7.314;2023-12-14T09:47:37;5.80;99.90
14006;DHT22;7078;51.542;7.314;2023-12-14T09:50:04;5.80;99.90
14006;DHT22;7078;51.542;7.314;2023-12-14T09:52:30;5.70;99.90
14006;DHT22;7078;51.542;7.314;2023-12-14T09:54:56;5.80;99.90
14006;DHT22;7078;51.542;7.314;2023-12-14T09:57:21;5.80;99.90
14006;DHT22;7078;51.542;7.314;2023-12-14T09:59:54;5.80;99.90
14006;DHT22;7078;51.542;7.314;2023-12-14T10:02:25;5.80;99.90
14006;DHT22;7078;51.542;7.314;2023-12-14T10:04:50;5.80;99.90
14006;DHT22;7078;51.542;7.314;2023-12-14T10:07:16;5.80;99.90
14006;DHT22;7078;51.542;7.314;2023-12-14T10:09:42;5.80;99.90
14006;DHT22;7078;51.542;7.314;2023-12-14T10:12:09;5.80;99.90
14006;DHT22;7078;51.542;7.314;2023-12-14T10:14:35;5.80;99.90
14006;DHT22;7078;51.542;7.314;2023-12-14T10:17:19;5.80;99.90
14006;DHT22;7078;51.542;7.314;2023-12-14T10:19:45;5.90;99.90
14006;DHT22;7078;51.542;7.314;2023-12-14T10:22:16;5.90;99.90
14006;DHT22;7078;51.542;7.314;2023-12-14T10:24:47;5.90;99.90
14006;DHT22;7078;51.542;7.314;2023-12-14T10:27:14;5.80;99.90
14006;DHT22;7078;51.542;7.314;2023-12-14T10:29:40;5.80;99.90
14006;DHT22;7078;51.542;7.314;2023-12-14T10:32:07;5.90;99.90
14006;DHT22;7078;51.542;7.314;2023-12-14T10:34:34;5.90;99.90
14006;DHT22;7078;51.542;7.314;2023-12-14T10:37:01;5.90;99.90
14006;DHT22;7078;51.542;7.314;2023-12-14T10:39:29;5.90;99.90
14006;DHT22;7078;51.542;7.314;2023-12-14T10:41:57;6.00;99.90
14006;DHT22;7078;51.542;7.314;2023-12-14T10:44:26;6.00;99.90
14006;DHT22;7078;51.542;7.314;2023-12-14T10:46:55;6.00;99.90
14006;DHT22;7078;51.542;7.314;2023-12-14T10:49:23;5.90;99.90
14006;DHT22;7078;51.542;7.314;2023-12-14T10:51:49;5.90;99.90
14006;DHT22;7078;51.542;7.314;2023-12-14T10:54:15;5.90;99.90
14006;DHT22;7078;51.542;7.314;2023-12-14T10:56:41;5.90;99.90
14006;DHT22;7078;51.542;7.314;2023-12-14T10:59:07;5.80;99.90
14006;DHT22;7078;51.542;7.314;2023-12-14T11:01:33;5.80;99.90
14006;DHT22;7078;51.542;7.314;2023-12-14T11:04:00;5.80;99.90
14006;DHT22;7078;51.542;7.314;2023-12-14T11:06:35;5.90;99.90
14006;DHT22;7078;51.542;7.314;2023-12-14T11:09:05;5.90;99.90
14006;DHT22;7078;51.542;7.314;2023-12-14T11:11:47;5.90;99.90
14006;DHT22;7078;51.542;7.314;2023-12-14T11:14:13;5.90;99.90
14006;DHT22;7078;51.542;7.314;2023-12-14T11:16:39;5.90;99.90
14006;DHT22;7078;51.542;7.314;2023-12-14T11:19:24;5.90;99.90
14006;DHT22;7078;51.542;7.314;2023-12-14T11:24:19;5.90;99.90
14006;DHT22;7078;51.542;7.314;2023-12-14T11:26:44;5.90;99.90
14006;DHT22;7078;51.542;7.314;2023-12-14T11:29:10;5.90;99.90
14006;DHT22;7078;51.542;7.314;2023-12-14T11:31:37;5.80;99.90
14006;DHT22;7078;51.542;7.314;2023-12-14T11:34:02;5.80;99.90
14006;DHT22;7078;51.542;7.314;2023-12-14T11:36:32;5.80;99.90
14006;DHT22;7078;51.542;7.314;2023-12-14T11:38:58;5.80;99.90
14006;DHT22;7078;51.542;7.314;2023-12-14T11:41:23;5.70;99.90
14006;DHT22;7078;51.542;7.314;2023-12-14T11:43:51;5.80;99.90
14006;DHT22;7078;51.542;7.314;2023-12-14T11:46:16;5.80;99.90
14006;DHT22;7078;51.542;7.314;2023-12-14T11:48:46;5.70;99.90
14006;DHT22;7078;51.542;7.314;2023-12-14T11:51:14;5.70;99.90
14006;DHT22;7078;51.542;7.314;2023-12-14T11:53:40;5.70;99.90
14006;DHT22;7078;51.542;7.314;2023-12-14T11:56:06;5.70;99.90
14006;DHT22;7078;51.542;7.314;2023-12-14T11:58:32;5.80;99.90
14006;DHT22;7078;51.542;7.314;2023-12-14T12:01:15;5.80;99.90
14006;DHT22;7078;51.542;7.314;2023-12-14T12:03:41;5.70;99.90
14006;DHT22;7078;51.542;7.314;2023-12-14T12:06:19;5.70;99.90
14006;DHT22;7078;51.542;7.314;2023-12-14T12:08:45;5.70;99.90
14006;DHT22;7078;51.542;7.314;2023-12-14T12:11:10;5.70;99.90
14006;DHT22;7078;51.542;7.314;2023-12-14T12:13:36;5.70;99.90
14006;DHT22;7078;51.542;7.314;2023-12-14T12:16:01;5.70;99.90
14006;DHT22;7078;51.542;7.314;2023-12-14T12:18:27;5.70;99.90
14006;DHT22;7078;51.542;7.314;2023-12-14T12:20:53;5.80;99.90
14006;DHT22;7078;51.542;7.314;2023-12-14T12:23:18;5.80;99.90
14006;DHT22;7078;51.542;7.314;2023-12-14T12:25:44;5.80;99.90
14006;DHT22;7078;51.542;7.314;2023-12-14T12:28:10;5.80;99.90
14006;DHT22;7078;51.542;7.314;2023-12-14T12:30:35;5.80;99.90
14006;DHT22;7078;51.542;7.314;2023-12-14T12:33:01;5.80;99.90
14006;DHT22;7078;51.542;7.314;2023-12-14T12:35:26;5.80;99.90
14006;DHT22;7078;51.542;7.314;2023-12-14T12:37:55;5.80;99.90
14006;DHT22;7078;51.542;7.314;2023-12-14T12:40:21;5.90;99.90
14006;DHT22;7078;51.542;7.314;2023-12-14T12:42:48;5.90;99.90
14006;DHT22;7078;51.542;7.314;2023-12-14T12:45:14;5.90;99.90
14006;DHT22;7078;51.542;7.314;2023-12-14T12:47:41;6.00;99.90
14006;DHT22;7078;51.542;7.314;2023-12-14T12:50:07;6.00;99.90
14006;DHT22;7078;51.542;7.314;2023-12-14T12:52:33;6.10;99.90
14006;DHT22;7078;51.542;7.314;2023-12-14T12:54:58;6.00;99.90
14006;DHT22;7078;51.542;7.314;2023-12-14T12:57:24;6.10;99.90
14006;DHT22;7078;51.542;7.314;2023-12-14T12:59:49;6.10;99.90
14006;DHT22;7078;51.542;7.314;2023-12-14T13:02:15;6.10;99.90
14006;DHT22;7078;51.542;7.314;2023-12-14T13:04:40;6.10;99.90
14006;DHT22;7078;51.542;7.314;2023-12-14T13:07:06;6.10;99.90
14006;DHT22;7078;51.542;7.314;2023-12-14T13:09:31;6.10;99.90
14006;DHT22;7078;51.542;7.314;2023-12-14T13:11:57;6.20;99.90
14006;DHT22;7078;51.542;7.314;2023-12-14T13:14:23;6.10;99.90
14006;DHT22;7078;51.542;7.314;2023-12-14T13:16:48;6.20;99.90
14006;DHT22;7078;51.542;7.314;2023-12-14T13:19:15;6.10;99.90
14006;DHT22;7078;51.542;7.314;2023-12-14T13:21:41;6.20;99.90
14006;DHT22;7078;51.542;7.314;2023-12-14T13:24:06;6.10;99.90
14006;DHT22;7078;51.542;7.314;2023-12-14T13:26:32;6.10;99.90
14006;DHT22;7078;51.542;7.314;2023-12-14T13:28:57;6.10;99.90
14006;DHT22;7078;51.542;7.314;2023-12-14T13:31:23;6.10;99.90
14006;DHT22;7078;51.542;7.314;2023-12-14T13:33:49;6.10;99.90
14006;DHT22;7078;51.542;7.314;2023-12-14T13:36:19;6.10;99.90
14006;DHT22;7078;51.542;7.314;2023-12-14T13:38:45;6.10;99.90
14006;DHT22;7078;51.542;7.314;2023-12-14T13:41:11;6.00;99.90
14006;DHT22;7078;51.542;7.314;2023-12-14T13:43:36;6.00;99.90
14006;DHT22;7078;51.542;7.314;2023-12-14T13:46:02;6.10;99.90
14006;DHT22;7078;51.542;7.314;2023-12-14T13:48:28;5.90;99.90
14006;DHT22;7078;51.542;7.314;2023-12-14T13:50:54;5.90;99.90
14006;DHT22;7078;51.542;7.314;2023-12-14T13:53:21;5.90;99.90
14006;DHT22;7078;51.542;7.314;2023-12-14T13:55:47;5.90;99.90
14006;DHT22;7078;51.542;7.314;2023-12-14T13:58:14;5.90;99.90
14006;DHT22;7078;51.542;7.314;2023-12-14T14:00:39;5.90;99.90
14006;DHT22;7078;51.542;7.314;2023-12-14T14:03:05;5.90;99.90
14006;DHT22;7078;51.542;7.314;2023-12-14T14:05:31;5.80;99.90
14006;DHT22;7078;51.542;7.314;2023-12-14T14:07:57;5.80;99.90
14006;DHT22;7078;51.542;7.314;2023-12-14T14:10:23;5.90;99.90
14006;DHT22;7078;51.542;7.314;2023-12-14T14:12:48;5.90;99.90
14006;DHT22;7078;51.542;7.314;2023-12-14T14:15:14;5.90;99.90
14006;DHT22;7078;51.542;7.314;2023-12-14T14:17:39;5.90;99.90
14006;DHT22;7078;51.542;7.314;2023-12-14T14:20:05;5.90;99.90
14006;DHT22;7078;51.542;7.314;2023-12-14T14:22:32;5.80;99.90
14006;DHT22;7078;51.542;7.314;2023-12-14T14:24:58;5.80;99.90
14006;DHT22;7078;51.542;7.314;2023-12-14T14:27:23;5.70;99.90
14006;DHT22;7078;51.542;7.314;2023-12-14T14:29:49;5.60;99.90
14006;DHT22;7078;51.542;7.314;2023-12-14T14:32:15;5.60;99.90
14006;DHT22;7078;51.542;7.314;2023-12-14T14:34:42;5.60;99.90
14006;DHT22;7078;51.542;7.314;2023-12-14T14:37:07;5.60;99.90
14006;DHT22;7078;51.542;7.314;2023-12-14T14:39:33;5.60;99.90
14006;DHT22;7078;51.542;7.314;2023-12-14T14:41:58;5.60;99.90
14006;DHT22;7078;51.542;7.314;2023-12-14T14:44:25;5.60;99.90
14006;DHT22;7078;51.542;7.314;2023-12-14T14:46:50;5.60;99.90
14006;DHT22;7078;51.542;7.314;2023-12-14T14:49:17;5.70;99.90
14006;DHT22;7078;51.542;7.314;2023-12-14T14:51:42;5.60;99.90
14006;DHT22;7078;51.542;7.314;2023-12-14T14:54:08;5.60;99.90
14006;DHT22;7078;51.542;7.314;2023-12-14T14:56:33;5.60;99.90
14006;DHT22;7078;51.542;7.314;2023-12-14T14:58:59;5.60;99.90
14006;DHT22;7078;51.542;7.314;2023-12-14T15:01:24;5.60;99.90
14006;DHT22;7078;51.542;7.314;2023-12-14T15:03:50;5.60;99.90
14006;DHT22;7078;51.542;7.314;2023-12-14T15:06:15;5.60;99.90
14006;DHT22;7078;51.542;7.314;2023-12-14T15:08:41;5.60;99.90
14006;DHT22;7078;51.542;7.314;2023-12-14T15:11:07;5.50;99.90
14006;DHT22;7078;51.542;7.314;2023-12-14T15:13:35;5.70;99.90
14006;DHT22;7078;51.542;7.314;2023-12-14T15:16:00;5.60;99.90
14006;DHT22;7078;51.542;7.314;2023-12-14T15:18:26;5.50;99.90
14006;DHT22;7078;51.542;7.314;2023-12-14T15:20:51;5.50;99.90
14006;DHT22;7078;51.542;7.314;2023-12-14T15:23:18;5.50;99.90
14006;DHT22;7078;51.542;7.314;2023-12-14T15:25:44;5.50;99.90
14006;DHT22;7078;51.542;7.314;2023-12-14T15:28:10;5.40;99.90
14006;DHT22;7078;51.542;7.314;2023-12-14T15:30:35;5.40;99.90
14006;DHT22;7078;51.542;7.314;2023-12-14T15:33:01;5.40;99.90
14006;DHT22;7078;51.542;7.314;2023-12-14T15:35:26;5.40;99.90
14006;DHT22;7078;51.542;7.314;2023-12-14T15:37:53;5.40;99.90
14006;DHT22;7078;51.542;7.314;2023-12-14T15:40:18;5.40;99.90
14006;DHT22;7078;51.542;7.314;2023-12-14T15:42:44;5.40;99.90
14006;DHT22;7078;51.542;7.314;2023-12-14T15:45:09;5.40;99.90
14006;DHT22;7078;51.542;7.314;2023-12-14T15:47:35;5.30;99.90
14006;DHT22;7078;51.542;7.314;2023-12-14T15:50:00;5.30;99.90
14006;DHT22;7078;51.542;7.314;2023-12-14T15:52:26;5.30;99.90
14006;DHT22;7078;51.542;7.314;2023-12-14T15:54:53;5.20;99.90
14006;DHT22;7078;51.542;7.314;2023-12-14T15:57:19;5.20;99.90